sensor_id;sensor_type;location;lat;lon;timestamp;P1;durP1;ratioP1;P2;durP2;ratioP2
21955;SDS011;11142;49.930;8.606;2022-10-17T04:48:49;8.82;;;5.82;;
21955;SDS011;11142;49.930;8.606;2022-10-17T04:51:17;10.55;;;5.90;;
21955;SDS011;11142;49.930;8.606;2022-10-17T04:54:16;10.00;;;5.57;;
21955;SDS011;11142;49.930;8.606;2022-10-17T04:56:48;14.73;;;6.72;;
21955;SDS011;11142;49.930;8.606;2022-10-17T04:59:17;12.25;;;6.38;;
21955;SDS011;11142;49.930;8.606;2022-10-17T05:01:47;15.05;;;6.68;;
21955;SDS011;11142;49.930;8.606;2022-10-17T05:04:18;14.25;;;6.88;;
21955;SDS011;11142;49.930;8.606;2022-10-17T05:06:51;19.08;;;7.13;;
21955;SDS011;11142;49.930;8.606;2022-10-17T05:09:39;10.75;;;7.20;;
21955;SDS011;11142;49.930;8.606;2022-10-17T05:12:08;14.25;;;7.32;;
21955;SDS011;11142;49.930;8.606;2022-10-17T05:14:40;11.38;;;6.93;;
21955;SDS011;11142;49.930;8.606;2022-10-17T05:17:08;11.20;;;7.00;;
21955;SDS011;11142;49.930;8.606;2022-10-17T05:19:38;14.18;;;6.97;;
21955;SDS011;11142;49.930;8.606;2022-10-17T05:22:07;15.90;;;8.57;;
21955;SDS011;11142;49.930;8.606;2022-10-17T05:24:35;22.40;;;11.25;;
21955;SDS011;11142;49.930;8.606;2022-10-17T05:27:03;17.77;;;8.02;;
21955;SDS011;11142;49.930;8.606;2022-10-17T05:29:31;19.25;;;10.05;;
21955;SDS011;11142;49.930;8.606;2022-10-17T05:32:13;18.10;;;8.00;;
21955;SDS011;11142;49.930;8.606;2022-10-17T05:34:44;14.80;;;8.27;;
21955;SDS011;11142;49.930;8.606;2022-10-17T05:37:12;19.10;;;8.45;;
21955;SDS011;11142;49.930;8.606;2022-10-17T05:39:45;11.97;;;7.63;;
21955;SDS011;11142;49.930;8.606;2022-10-17T05:42:18;13.35;;;7.35;;
21955;SDS011;11142;49.930;8.606;2022-10-17T05:44:46;19.00;;;9.30;;
21955;SDS011;11142;49.930;8.606;2022-10-17T05:47:17;18.08;;;9.38;;
21955;SDS011;11142;49.930;8.606;2022-10-17T05:49:46;19.23;;;10.68;;
21955;SDS011;11142;49.930;8.606;2022-10-17T05:52:24;25.95;;;9.50;;
21955;SDS011;11142;49.930;8.606;2022-10-17T05:55:00;16.83;;;9.20;;
21955;SDS011;11142;49.930;8.606;2022-10-17T05:57:30;17.02;;;8.73;;
21955;SDS011;11142;49.930;8.606;2022-10-17T05:59:59;20.90;;;8.48;;
21955;SDS011;11142;49.930;8.606;2022-10-17T06:02:39;13.65;;;7.43;;
21955;SDS011;11142;49.930;8.606;2022-10-17T06:05:10;14.63;;;8.38;;
21955;SDS011;11142;49.930;8.606;2022-10-17T06:07:39;11.38;;;6.65;;
21955;SDS011;11142;49.930;8.606;2022-10-17T06:10:08;10.90;;;7.05;;
21955;SDS011;11142;49.930;8.606;2022-10-17T06:12:37;11.88;;;7.40;;
21955;SDS011;11142;49.930;8.606;2022-10-17T06:15:05;15.27;;;6.60;;
21955;SDS011;11142;49.930;8.606;2022-10-17T06:17:37;12.27;;;7.22;;
21955;SDS011;11142;49.930;8.606;2022-10-17T06:20:05;17.50;;;10.27;;
21955;SDS011;11142;49.930;8.606;2022-10-17T06:22:35;17.20;;;8.02;;
21955;SDS011;11142;49.930;8.606;2022-10-17T06:25:10;18.23;;;8.65;;
21955;SDS011;11142;49.930;8.606;2022-10-17T06:27:38;11.68;;;7.07;;
21955;SDS011;11142;49.930;8.606;2022-10-17T06:30:06;11.77;;;6.20;;
21955;SDS011;11142;49.930;8.606;2022-10-17T06:32:34;15.77;;;6.28;;
21955;SDS011;11142;49.930;8.606;2022-10-17T06:35:04;11.05;;;5.78;;
21955;SDS011;11142;49.930;8.606;2022-10-17T06:37:35;12.07;;;5.90;;
21955;SDS011;11142;49.930;8.606;2022-10-17T06:40:07;9.32;;;5.45;;
21955;SDS011;11142;49.930;8.606;2022-10-17T06:42:38;8.70;;;5.40;;
21955;SDS011;11142;49.930;8.606;2022-10-17T06:45:21;14.43;;;5.10;;
21955;SDS011;11142;49.930;8.606;2022-10-17T06:47:53;8.25;;;4.95;;
21955;SDS011;11142;49.930;8.606;2022-10-17T06:50:41;9.32;;;3.70;;
21955;SDS011;11142;49.930;8.606;2022-10-17T06:53:15;7.53;;;3.50;;
21955;SDS011;11142;49.930;8.606;2022-10-17T06:55:51;8.63;;;4.10;;
21955;SDS011;11142;49.930;8.606;2022-10-17T06:58:42;5.45;;;3.15;;
21955;SDS011;11142;49.930;8.606;2022-10-17T07:01:23;4.63;;;2.70;;
21955;SDS011;11142;49.930;8.606;2022-10-17T07:03:55;7.40;;;3.25;;
21955;SDS011;11142;49.930;8.606;2022-10-17T07:06:23;4.45;;;2.60;;
21955;SDS011;11142;49.930;8.606;2022-10-17T07:08:55;3.13;;;2.35;;
21955;SDS011;11142;49.930;8.606;2022-10-17T07:11:23;4.05;;;2.50;;
21955;SDS011;11142;49.930;8.606;2022-10-17T07:13:51;4.15;;;2.60;;
21955;SDS011;11142;49.930;8.606;2022-10-17T07:16:20;3.03;;;2.33;;
21955;SDS011;11142;49.930;8.606;2022-10-17T07:19:00;6.72;;;2.50;;
21955;SDS011;11142;49.930;8.606;2022-10-17T07:21:33;4.15;;;2.35;;
21955;SDS011;11142;49.930;8.606;2022-10-17T07:24:07;4.07;;;2.28;;
21955;SDS011;11142;49.930;8.606;2022-10-17T07:26:37;4.05;;;2.17;;
21955;SDS011;11142;49.930;8.606;2022-10-17T07:29:05;4.00;;;2.67;;
21955;SDS011;11142;49.930;8.606;2022-10-17T07:31:49;3.45;;;2.60;;
21955;SDS011;11142;49.930;8.606;2022-10-17T07:34:17;5.35;;;2.72;;
21955;SDS011;11142;49.930;8.606;2022-10-17T07:36:46;6.53;;;2.45;;
21955;SDS011;11142;49.930;8.606;2022-10-17T07:39:15;6.25;;;3.03;;
21955;SDS011;11142;49.930;8.606;2022-10-17T07:41:44;6.90;;;2.97;;
21955;SDS011;11142;49.930;8.606;2022-10-17T07:44:13;3.90;;;2.90;;
21955;SDS011;11142;49.930;8.606;2022-10-17T07:46:44;4.90;;;3.22;;
21955;SDS011;11142;49.930;8.606;2022-10-17T07:49:13;5.28;;;3.45;;
21955;SDS011;11142;49.930;8.606;2022-10-17T07:51:41;6.53;;;3.17;;
21955;SDS011;11142;49.930;8.606;2022-10-17T07:54:09;5.53;;;3.50;;
21955;SDS011;11142;49.930;8.606;2022-10-17T07:56:39;6.63;;;3.47;;
21955;SDS011;11142;49.930;8.606;2022-10-17T07:59:07;4.63;;;3.15;;
21955;SDS011;11142;49.930;8.606;2022-10-17T08:01:35;5.43;;;3.40;;
21955;SDS011;11142;49.930;8.606;2022-10-17T08:04:03;4.90;;;3.05;;
21955;SDS011;11142;49.930;8.606;2022-10-17T08:06:31;5.13;;;3.42;;
21955;SDS011;11142;49.930;8.606;2022-10-17T08:09:00;6.43;;;3.50;;
21955;SDS011;11142;49.930;8.606;2022-10-17T08:11:28;4.75;;;3.63;;
21955;SDS011;11142;49.930;8.606;2022-10-17T08:13:57;4.60;;;3.60;;
21955;SDS011;11142;49.930;8.606;2022-10-17T08:16:26;8.15;;;3.88;;
21955;SDS011;11142;49.930;8.606;2022-10-17T08:18:54;4.63;;;3.40;;
21955;SDS011;11142;49.930;8.606;2022-10-17T08:21:22;4.82;;;3.53;;
21955;SDS011;11142;49.930;8.606;2022-10-17T08:23:51;5.03;;;3.42;;
21955;SDS011;11142;49.930;8.606;2022-10-17T08:26:19;4.10;;;3.30;;
21955;SDS011;11142;49.930;8.606;2022-10-17T08:28:48;7.57;;;3.47;;
21955;SDS011;11142;49.930;8.606;2022-10-17T08:31:18;5.53;;;3.88;;
21955;SDS011;11142;49.930;8.606;2022-10-17T08:33:47;5.47;;;4.07;;
21955;SDS011;11142;49.930;8.606;2022-10-17T08:36:18;9.07;;;3.80;;
21955;SDS011;11142;49.930;8.606;2022-10-17T08:38:47;5.25;;;3.70;;
21955;SDS011;11142;49.930;8.606;2022-10-17T08:41:21;7.10;;;4.22;;
21955;SDS011;11142;49.930;8.606;2022-10-17T08:44:05;5.60;;;3.60;;
21955;SDS011;11142;49.930;8.606;2022-10-17T08:46:43;4.88;;;3.67;;
21955;SDS011;11142;49.930;8.606;2022-10-17T08:49:15;6.50;;;3.63;;
21955;SDS011;11142;49.930;8.606;2022-10-17T08:51:51;6.38;;;3.63;;
21955;SDS011;11142;49.930;8.606;2022-10-17T08:54:30;7.43;;;3.40;;
21955;SDS011;11142;49.930;8.606;2022-10-17T08:57:08;7.40;;;3.42;;
21955;SDS011;11142;49.930;8.606;2022-10-17T08:59:38;7.60;;;4.25;;
21955;SDS011;11142;49.930;8.606;2022-10-17T09:02:13;5.60;;;3.30;;
21955;SDS011;11142;49.930;8.606;2022-10-17T09:04:57;4.70;;;3.40;;
21955;SDS011;11142;49.930;8.606;2022-10-17T09:07:42;4.60;;;3.08;;
21955;SDS011;11142;49.930;8.606;2022-10-17T09:10:17;6.43;;;3.58;;
21955;SDS011;11142;49.930;8.606;2022-10-17T09:12:55;5.00;;;3.33;;
21955;SDS011;11142;49.930;8.606;2022-10-17T09:15:47;5.35;;;3.17;;
21955;SDS011;11142;49.930;8.606;2022-10-17T09:18:26;4.90;;;3.63;;
21955;SDS011;11142;49.930;8.606;2022-10-17T09:20:58;5.90;;;3.10;;
21955;SDS011;11142;49.930;8.606;2022-10-17T09:23:35;4.20;;;3.00;;
21955;SDS011;11142;49.930;8.606;2022-10-17T09:26:10;4.20;;;2.95;;
21955;SDS011;11142;49.930;8.606;2022-10-17T09:28:39;5.03;;;2.67;;
21955;SDS011;11142;49.930;8.606;2022-10-17T09:31:10;5.68;;;2.83;;
21955;SDS011;11142;49.930;8.606;2022-10-17T09:33:42;5.45;;;3.13;;
21955;SDS011;11142;49.930;8.606;2022-10-17T09:36:20;6.40;;;3.05;;
21955;SDS011;11142;49.930;8.606;2022-10-17T09:38:51;3.17;;;2.67;;
21955;SDS011;11142;49.930;8.606;2022-10-17T09:41:22;5.60;;;3.30;;
21955;SDS011;11142;49.930;8.606;2022-10-17T09:44:16;4.88;;;3.00;;
21955;SDS011;11142;49.930;8.606;2022-10-17T09:47:03;2.90;;;2.45;;
21955;SDS011;11142;49.930;8.606;2022-10-17T09:49:38;4.90;;;2.80;;
21955;SDS011;11142;49.930;8.606;2022-10-17T09:52:09;3.95;;;2.35;;
21955;SDS011;11142;49.930;8.606;2022-10-17T09:54:41;4.15;;;2.60;;
21955;SDS011;11142;49.930;8.606;2022-10-17T09:57:12;7.10;;;2.80;;
21955;SDS011;11142;49.930;8.606;2022-10-17T09:59:42;4.97;;;2.90;;
21955;SDS011;11142;49.930;8.606;2022-10-17T10:02:21;5.18;;;2.90;;
21955;SDS011;11142;49.930;8.606;2022-10-17T10:04:53;3.33;;;2.75;;
21955;SDS011;11142;49.930;8.606;2022-10-17T10:07:35;5.53;;;2.33;;
21955;SDS011;11142;49.930;8.606;2022-10-17T10:10:05;4.40;;;2.60;;
21955;SDS011;11142;49.930;8.606;2022-10-17T10:12:35;2.88;;;2.47;;
21955;SDS011;11142;49.930;8.606;2022-10-17T10:17:57;3.63;;;2.42;;
21955;SDS011;11142;49.930;8.606;2022-10-17T10:20:28;4.05;;;2.85;;
21955;SDS011;11142;49.930;8.606;2022-10-17T10:23:06;3.95;;;2.45;;
21955;SDS011;11142;49.930;8.606;2022-10-17T10:25:48;4.68;;;2.50;;
21955;SDS011;11142;49.930;8.606;2022-10-17T10:28:21;5.13;;;2.92;;
21955;SDS011;11142;49.930;8.606;2022-10-17T10:30:51;2.92;;;2.40;;
21955;SDS011;11142;49.930;8.606;2022-10-17T10:33:22;3.55;;;2.50;;
21955;SDS011;11142;49.930;8.606;2022-10-17T10:35:56;5.20;;;2.35;;
21955;SDS011;11142;49.930;8.606;2022-10-17T10:40:56;6.88;;;2.58;;
21955;SDS011;11142;49.930;8.606;2022-10-17T10:43:30;4.72;;;2.22;;
21955;SDS011;11142;49.930;8.606;2022-10-17T10:46:02;5.03;;;2.10;;
21955;SDS011;11142;49.930;8.606;2022-10-17T10:48:33;11.98;;;2.63;;
21955;SDS011;11142;49.930;8.606;2022-10-17T10:51:04;4.00;;;2.45;;
21955;SDS011;11142;49.930;8.606;2022-10-17T10:53:41;6.45;;;2.20;;
21955;SDS011;11142;49.930;8.606;2022-10-17T10:56:15;4.57;;;1.98;;
21955;SDS011;11142;49.930;8.606;2022-10-17T10:58:51;4.53;;;2.08;;
21955;SDS011;11142;49.930;8.606;2022-10-17T11:01:24;4.72;;;1.80;;
21955;SDS011;11142;49.930;8.606;2022-10-17T11:04:19;5.20;;;2.17;;
21955;SDS011;11142;49.930;8.606;2022-10-17T11:06:57;5.53;;;2.50;;
21955;SDS011;11142;49.930;8.606;2022-10-17T11:09:32;3.35;;;2.38;;
21955;SDS011;11142;49.930;8.606;2022-10-17T11:12:09;3.35;;;2.20;;
21955;SDS011;11142;49.930;8.606;2022-10-17T11:14:42;2.65;;;1.98;;
21955;SDS011;11142;49.930;8.606;2022-10-17T11:17:16;4.28;;;2.17;;
21955;SDS011;11142;49.930;8.606;2022-10-17T11:19:53;4.72;;;2.10;;
21955;SDS011;11142;49.930;8.606;2022-10-17T11:22:39;3.40;;;2.08;;
21955;SDS011;11142;49.930;8.606;2022-10-17T11:25:14;6.53;;;2.20;;
21955;SDS011;11142;49.930;8.606;2022-10-17T11:27:48;3.88;;;2.40;;
21955;SDS011;11142;49.930;8.606;2022-10-17T11:30:17;3.30;;;2.20;;
21955;SDS011;11142;49.930;8.606;2022-10-17T11:32:46;3.47;;;2.50;;
21955;SDS011;11142;49.930;8.606;2022-10-17T11:35:18;5.13;;;2.10;;
21955;SDS011;11142;49.930;8.606;2022-10-17T11:37:52;5.55;;;1.90;;
21955;SDS011;11142;49.930;8.606;2022-10-17T11:40:35;3.55;;;2.00;;
21955;SDS011;11142;49.930;8.606;2022-10-17T11:45:40;3.75;;;1.98;;
21955;SDS011;11142;49.930;8.606;2022-10-17T11:50:46;7.70;;;2.65;;
21955;SDS011;11142;49.930;8.606;2022-10-17T11:53:48;2.78;;;2.22;;
21955;SDS011;11142;49.930;8.606;2022-10-17T11:56:23;3.00;;;2.33;;
21955;SDS011;11142;49.930;8.606;2022-10-17T11:59:00;2.55;;;2.17;;
21955;SDS011;11142;49.930;8.606;2022-10-17T12:01:57;2.60;;;2.38;;
21955;SDS011;11142;49.930;8.606;2022-10-17T12:04:34;4.03;;;2.15;;
21955;SDS011;11142;49.930;8.606;2022-10-17T12:07:16;3.55;;;2.33;;
21955;SDS011;11142;49.930;8.606;2022-10-17T12:09:51;2.75;;;2.47;;
21955;SDS011;11142;49.930;8.606;2022-10-17T12:12:24;3.53;;;2.35;;
21955;SDS011;11142;49.930;8.606;2022-10-17T12:14:55;2.85;;;2.35;;
21955;SDS011;11142;49.930;8.606;2022-10-17T12:17:59;4.78;;;2.40;;
21955;SDS011;11142;49.930;8.606;2022-10-17T12:20:29;3.10;;;2.10;;
21955;SDS011;11142;49.930;8.606;2022-10-17T12:23:02;4.05;;;2.25;;
21955;SDS011;11142;49.930;8.606;2022-10-17T12:25:34;2.45;;;2.00;;
21955;SDS011;11142;49.930;8.606;2022-10-17T12:28:12;6.82;;;2.97;;
21955;SDS011;11142;49.930;8.606;2022-10-17T12:30:53;6.85;;;2.40;;
21955;SDS011;11142;49.930;8.606;2022-10-17T12:33:25;8.77;;;2.45;;
21955;SDS011;11142;49.930;8.606;2022-10-17T12:42:30;4.18;;;2.20;;
21955;SDS011;11142;49.930;8.606;2022-10-17T12:44:59;6.40;;;2.63;;
21955;SDS011;11142;49.930;8.606;2022-10-17T12:47:34;6.15;;;2.25;;
21955;SDS011;11142;49.930;8.606;2022-10-17T12:53:14;4.38;;;1.83;;
21955;SDS011;11142;49.930;8.606;2022-10-17T12:55:46;2.75;;;2.20;;
21955;SDS011;11142;49.930;8.606;2022-10-17T12:58:18;4.20;;;1.90;;
21955;SDS011;11142;49.930;8.606;2022-10-17T13:00:47;5.97;;;2.10;;
21955;SDS011;11142;49.930;8.606;2022-10-17T13:03:40;3.03;;;1.90;;
21955;SDS011;11142;49.930;8.606;2022-10-17T13:06:12;4.40;;;2.00;;
21955;SDS011;11142;49.930;8.606;2022-10-17T13:08:47;2.33;;;2.05;;
21955;SDS011;11142;49.930;8.606;2022-10-17T13:11:30;3.53;;;1.83;;
21955;SDS011;11142;49.930;8.606;2022-10-17T13:14:10;2.28;;;2.05;;
21955;SDS011;11142;49.930;8.606;2022-10-17T13:16:56;3.58;;;2.20;;
21955;SDS011;11142;49.930;8.606;2022-10-17T13:19:28;4.55;;;2.20;;
21955;SDS011;11142;49.930;8.606;2022-10-17T13:21:58;2.47;;;1.80;;
21955;SDS011;11142;49.930;8.606;2022-10-17T13:24:33;3.97;;;1.98;;
21955;SDS011;11142;49.930;8.606;2022-10-17T13:27:04;2.20;;;2.00;;
21955;SDS011;11142;49.930;8.606;2022-10-17T13:29:35;3.30;;;2.50;;
21955;SDS011;11142;49.930;8.606;2022-10-17T13:32:11;5.75;;;1.98;;
21955;SDS011;11142;49.930;8.606;2022-10-17T13:34:39;3.83;;;2.22;;
21955;SDS011;11142;49.930;8.606;2022-10-17T13:37:10;6.72;;;2.47;;
21955;SDS011;11142;49.930;8.606;2022-10-17T13:39:41;3.13;;;1.95;;
21955;SDS011;11142;49.930;8.606;2022-10-17T13:42:35;3.22;;;1.92;;
21955;SDS011;11142;49.930;8.606;2022-10-17T13:45:12;6.43;;;2.22;;
21955;SDS011;11142;49.930;8.606;2022-10-17T13:47:45;4.10;;;1.92;;
21955;SDS011;11142;49.930;8.606;2022-10-17T13:50:19;3.38;;;1.70;;
21955;SDS011;11142;49.930;8.606;2022-10-17T13:53:15;2.70;;;2.03;;
21955;SDS011;11142;49.930;8.606;2022-10-17T13:55:53;6.45;;;2.08;;
21955;SDS011;11142;49.930;8.606;2022-10-17T13:58:44;3.28;;;2.13;;
21955;SDS011;11142;49.930;8.606;2022-10-17T14:01:15;3.03;;;1.90;;
21955;SDS011;11142;49.930;8.606;2022-10-17T14:03:45;4.05;;;2.20;;
21955;SDS011;11142;49.930;8.606;2022-10-17T14:06:22;4.03;;;1.90;;
21955;SDS011;11142;49.930;8.606;2022-10-17T14:08:53;3.17;;;2.15;;
21955;SDS011;11142;49.930;8.606;2022-10-17T14:11:26;5.68;;;2.42;;
21955;SDS011;11142;49.930;8.606;2022-10-17T14:13:59;3.70;;;1.90;;
21955;SDS011;11142;49.930;8.606;2022-10-17T14:16:34;4.68;;;2.10;;
21955;SDS011;11142;49.930;8.606;2022-10-17T14:19:04;4.07;;;1.92;;
21955;SDS011;11142;49.930;8.606;2022-10-17T14:21:41;3.67;;;2.10;;
21955;SDS011;11142;49.930;8.606;2022-10-17T14:26:53;6.20;;;2.25;;
21955;SDS011;11142;49.930;8.606;2022-10-17T14:29:25;4.80;;;2.35;;
21955;SDS011;11142;49.930;8.606;2022-10-17T14:32:00;2.60;;;1.67;;
21955;SDS011;11142;49.930;8.606;2022-10-17T14:34:31;5.22;;;2.13;;
21955;SDS011;11142;49.930;8.606;2022-10-17T14:37:06;3.28;;;2.20;;
21955;SDS011;11142;49.930;8.606;2022-10-17T14:39:36;3.10;;;2.00;;
21955;SDS011;11142;49.930;8.606;2022-10-17T14:42:05;2.60;;;2.10;;
21955;SDS011;11142;49.930;8.606;2022-10-17T14:44:33;8.02;;;2.33;;
21955;SDS011;11142;49.930;8.606;2022-10-17T14:47:05;4.05;;;2.05;;
21955;SDS011;11142;49.930;8.606;2022-10-17T14:50:02;4.00;;;2.10;;
21955;SDS011;11142;49.930;8.606;2022-10-17T14:52:33;2.83;;;1.80;;
21955;SDS011;11142;49.930;8.606;2022-10-17T14:55:20;9.95;;;1.98;;
21955;SDS011;11142;49.930;8.606;2022-10-17T14:57:50;5.05;;;2.08;;
21955;SDS011;11142;49.930;8.606;2022-10-17T15:00:19;3.72;;;2.22;;
21955;SDS011;11142;49.930;8.606;2022-10-17T15:02:50;5.18;;;2.65;;
21955;SDS011;11142;49.930;8.606;2022-10-17T15:05:19;4.47;;;2.28;;
21955;SDS011;11142;49.930;8.606;2022-10-17T15:07:48;2.97;;;2.10;;
21955;SDS011;11142;49.930;8.606;2022-10-17T15:10:22;5.80;;;3.08;;
21955;SDS011;11142;49.930;8.606;2022-10-17T15:12:53;3.55;;;2.10;;
21955;SDS011;11142;49.930;8.606;2022-10-17T15:15:30;5.85;;;2.50;;
21955;SDS011;11142;49.930;8.606;2022-10-17T15:18:00;4.53;;;2.33;;
21955;SDS011;11142;49.930;8.606;2022-10-17T15:20:28;6.72;;;2.50;;
21955;SDS011;11142;49.930;8.606;2022-10-17T15:22:57;4.35;;;2.00;;
21955;SDS011;11142;49.930;8.606;2022-10-17T15:25:26;4.07;;;2.05;;
21955;SDS011;11142;49.930;8.606;2022-10-17T15:27:55;4.03;;;2.28;;
21955;SDS011;11142;49.930;8.606;2022-10-17T15:30:25;5.32;;;2.28;;
21955;SDS011;11142;49.930;8.606;2022-10-17T15:32:54;2.88;;;2.28;;
21955;SDS011;11142;49.930;8.606;2022-10-17T15:35:24;4.72;;;2.15;;
21955;SDS011;11142;49.930;8.606;2022-10-17T15:37:53;3.75;;;2.13;;
21955;SDS011;11142;49.930;8.606;2022-10-17T15:40:22;4.03;;;2.17;;
21955;SDS011;11142;49.930;8.606;2022-10-17T15:42:53;6.18;;;2.20;;
21955;SDS011;11142;49.930;8.606;2022-10-17T15:45:22;4.43;;;2.08;;
21955;SDS011;11142;49.930;8.606;2022-10-17T15:47:52;3.83;;;2.25;;
21955;SDS011;11142;49.930;8.606;2022-10-17T15:50:23;4.55;;;2.83;;
21955;SDS011;11142;49.930;8.606;2022-10-17T15:52:54;5.85;;;2.40;;
21955;SDS011;11142;49.930;8.606;2022-10-17T15:55:22;6.00;;;2.67;;
21955;SDS011;11142;49.930;8.606;2022-10-17T15:57:50;5.10;;;2.55;;
21955;SDS011;11142;49.930;8.606;2022-10-17T16:00:19;3.97;;;2.25;;
21955;SDS011;11142;49.930;8.606;2022-10-17T16:02:49;3.67;;;2.17;;
21955;SDS011;11142;49.930;8.606;2022-10-17T16:05:18;5.13;;;2.55;;
21955;SDS011;11142;49.930;8.606;2022-10-17T16:07:50;3.25;;;2.47;;
21955;SDS011;11142;49.930;8.606;2022-10-17T16:10:19;3.25;;;2.45;;
21955;SDS011;11142;49.930;8.606;2022-10-17T16:12:48;4.00;;;2.60;;
21955;SDS011;11142;49.930;8.606;2022-10-17T16:15:17;6.57;;;2.78;;
21955;SDS011;11142;49.930;8.606;2022-10-17T16:17:48;3.63;;;2.38;;
21955;SDS011;11142;49.930;8.606;2022-10-17T16:20:16;4.60;;;2.70;;
21955;SDS011;11142;49.930;8.606;2022-10-17T16:22:45;3.40;;;2.60;;
21955;SDS011;11142;49.930;8.606;2022-10-17T16:25:17;5.57;;;2.63;;
21955;SDS011;11142;49.930;8.606;2022-10-17T16:27:52;7.00;;;2.90;;
21955;SDS011;11142;49.930;8.606;2022-10-17T16:30:21;3.92;;;2.90;;
21955;SDS011;11142;49.930;8.606;2022-10-17T16:32:51;4.35;;;2.75;;
21955;SDS011;11142;49.930;8.606;2022-10-17T16:35:21;4.30;;;2.80;;
21955;SDS011;11142;49.930;8.606;2022-10-17T16:37:51;6.38;;;3.40;;
21955;SDS011;11142;49.930;8.606;2022-10-17T16:40:20;6.72;;;3.17;;
21955;SDS011;11142;49.930;8.606;2022-10-17T16:42:49;3.83;;;2.88;;
21955;SDS011;11142;49.930;8.606;2022-10-17T18:26:11;6.43;;;4.20;;
21955;SDS011;11142;49.930;8.606;2022-10-17T18:28:41;5.97;;;4.65;;
21955;SDS011;11142;49.930;8.606;2022-10-17T19:42:26;12.38;;;6.75;;
21955;SDS011;11142;49.930;8.606;2022-10-17T19:44:54;11.63;;;6.93;;
